createdAt,value
2023-05-14T00:01:23.888Z,48.33
2023-05-14T00:03:50.911Z,48.43
2023-05-14T00:06:17.843Z,47.17
2023-05-14T00:08:44.666Z,47.67
2023-05-14T00:11:11.493Z,49.60
2023-05-14T00:13:38.421Z,48.43
2023-05-14T00:16:05.654Z,48.97
2023-05-14T00:18:32.740Z,48.50
2023-05-14T00:20:59.587Z,47.90
2023-05-14T00:23:26.386Z,46.47
2023-05-14T00:25:53.215Z,48.80
2023-05-14T00:28:20.698Z,48.13
2023-05-14T00:30:48.538Z,50.27
2023-05-14T00:33:15.998Z,49.00
2023-05-14T00:35:43.471Z,46.90
2023-05-14T00:38:16.792Z,48.87
2023-05-14T00:40:45.899Z,47.20
2023-05-14T00:43:12.770Z,50.50
2023-05-14T00:45:39.782Z,50.67
2023-05-14T00:48:07.169Z,51.00
2023-05-14T00:50:34.614Z,47.30
2023-05-14T00:53:01.683Z,48.63
2023-05-14T00:55:30.804Z,50.40
2023-05-14T00:57:58.958Z,49.30
2023-05-14T01:00:26.152Z,49.20
2023-05-14T01:02:53.041Z,48.90
2023-05-14T01:05:20.255Z,49.90
2023-05-14T01:08:07.700Z,50.23
2023-05-14T01:10:45.866Z,49.10
2023-05-14T01:13:27.883Z,47.57
2023-05-14T01:15:58.128Z,48.20
2023-05-14T01:18:26.101Z,48.20
2023-05-14T01:20:54.522Z,49.67
2023-05-14T01:23:21.296Z,49.37
2023-05-14T01:25:48.092Z,48.67
2023-05-14T01:28:20.217Z,48.77
2023-05-14T01:31:16.269Z,51.90
2023-05-14T01:33:44.758Z,47.00
2023-05-14T01:36:11.653Z,49.47
2023-05-14T01:38:39.714Z,50.30
2023-05-14T01:41:06.790Z,49.50
2023-05-14T01:43:34.513Z,48.63
2023-05-14T01:46:01.465Z,48.23
2023-05-14T01:48:29.890Z,50.73
2023-05-14T01:50:57.135Z,50.90
2023-05-14T01:53:23.964Z,50.33
2023-05-14T01:55:50.826Z,49.17
2023-05-14T01:58:17.708Z,48.83
2023-05-14T02:00:44.497Z,51.13
2023-05-14T02:03:11.438Z,50.87
2023-05-14T02:05:38.341Z,51.63
2023-05-14T02:08:05.428Z,48.87
2023-05-14T02:10:32.708Z,50.90
2023-05-14T02:12:59.531Z,50.03
2023-05-14T02:15:26.443Z,50.83
2023-05-14T02:17:53.279Z,51.87
2023-05-14T02:20:20.135Z,50.57
2023-05-14T02:22:46.966Z,51.40
2023-05-14T02:25:13.774Z,52.27
2023-05-14T02:27:40.600Z,49.13
2023-05-14T02:30:08.015Z,48.70
2023-05-14T02:32:34.874Z,50.50
2023-05-14T02:35:01.908Z,47.87
2023-05-14T02:37:28.710Z,47.20
2023-05-14T02:39:55.487Z,49.60
2023-05-14T02:42:22.916Z,48.90
2023-05-14T02:44:49.814Z,48.20
2023-05-14T02:47:16.620Z,48.23
2023-05-14T02:49:43.404Z,48.57
2023-05-14T02:52:10.383Z,50.53
2023-05-14T02:54:37.271Z,50.70
2023-05-14T02:57:04.391Z,47.77
2023-05-14T02:59:31.655Z,49.40
2023-05-14T03:01:59.093Z,47.37
2023-05-14T03:04:26.574Z,47.07
2023-05-14T03:06:53.395Z,49.43
2023-05-14T03:09:20.266Z,51.07
2023-05-14T03:11:47.125Z,50.47
2023-05-14T03:14:14.106Z,49.80
2023-05-14T03:16:42.385Z,47.63
2023-05-14T03:19:09.999Z,53.27
2023-05-14T03:21:37.100Z,52.83
2023-05-14T03:24:04.019Z,49.83
2023-05-14T03:26:30.892Z,49.50
2023-05-14T03:28:57.693Z,49.57
2023-05-14T03:31:24.998Z,48.23
2023-05-14T03:33:52.127Z,48.73
2023-05-14T03:36:18.935Z,48.47
2023-05-14T03:38:47.934Z,50.37
2023-05-14T03:41:15.498Z,51.23
2023-05-14T03:43:42.737Z,49.37
2023-05-14T03:46:09.531Z,51.20
2023-05-14T03:48:36.595Z,52.17
2023-05-14T03:51:04.921Z,51.00
2023-05-14T03:53:31.701Z,51.63
2023-05-14T03:55:58.613Z,52.60
2023-05-14T03:58:25.579Z,54.17
2023-05-14T04:00:53.709Z,53.77
2023-05-14T04:03:20.638Z,51.83
2023-05-14T04:05:47.653Z,53.67
2023-05-14T04:08:14.467Z,53.23
2023-05-14T04:10:43.041Z,56.27
2023-05-14T04:13:09.888Z,55.23
2023-05-14T04:15:39.990Z,52.40
2023-05-14T04:18:07.668Z,54.47
2023-05-14T04:20:34.588Z,54.07
2023-05-14T04:23:01.358Z,52.67
2023-05-14T04:25:28.182Z,56.23
2023-05-14T04:27:54.946Z,53.47
2023-05-14T04:30:22.264Z,55.17
2023-05-14T04:32:49.153Z,53.30
2023-05-14T04:35:16.266Z,54.53
2023-05-14T04:37:43.040Z,53.00
2023-05-14T04:40:11.341Z,52.50
2023-05-14T04:42:38.910Z,53.57
2023-05-14T04:45:06.843Z,51.47
2023-05-14T04:47:33.837Z,52.13
2023-05-14T04:50:00.704Z,54.73
2023-05-14T04:52:27.708Z,50.80
2023-05-14T04:54:54.926Z,53.53
2023-05-14T04:57:21.834Z,53.27
2023-05-14T04:59:48.619Z,55.73
2023-05-14T05:02:15.502Z,55.10
2023-05-14T05:04:42.271Z,53.33
2023-05-14T05:07:09.027Z,53.40
2023-05-14T05:09:35.827Z,52.73
2023-05-14T05:12:02.646Z,53.80
2023-05-14T05:14:29.621Z,52.00
2023-05-14T05:16:56.548Z,51.37
2023-05-14T05:19:35.843Z,48.73
2023-05-14T05:22:06.951Z,47.43
2023-05-14T05:24:33.771Z,49.97
2023-05-14T05:27:00.648Z,50.73
2023-05-14T05:29:27.478Z,51.57
2023-05-14T05:31:54.371Z,49.60
2023-05-14T05:34:21.463Z,50.33
2023-05-14T05:36:48.312Z,50.10
2023-05-14T05:39:15.112Z,49.10
2023-05-14T05:41:43.592Z,50.10
2023-05-14T05:44:10.444Z,53.03
2023-05-14T05:46:37.685Z,49.70
2023-05-14T05:49:04.536Z,48.97
2023-05-14T05:51:31.447Z,51.13
2023-05-14T05:53:58.389Z,52.90
2023-05-14T05:56:25.182Z,48.20
2023-05-14T05:58:52.138Z,50.00
2023-05-14T06:01:18.920Z,48.80
2023-05-14T06:03:48.260Z,49.17
2023-05-14T06:06:15.738Z,50.90
2023-05-14T06:08:42.612Z,51.23
2023-05-14T06:11:09.426Z,49.63
2023-05-14T06:13:36.178Z,48.67
2023-05-14T06:16:03.013Z,49.10
2023-05-14T06:18:29.867Z,53.20
2023-05-14T06:20:57.360Z,49.03
2023-05-14T06:23:24.084Z,49.27
2023-05-14T06:25:51.128Z,50.40
2023-05-14T06:28:17.986Z,52.03
2023-05-14T06:30:44.756Z,48.83
2023-05-14T06:33:13.425Z,48.77
2023-05-14T06:35:40.417Z,48.27
2023-05-14T06:38:07.144Z,48.63
2023-05-14T06:40:33.934Z,48.87
2023-05-14T06:43:00.699Z,50.90
2023-05-14T06:45:27.458Z,49.13
2023-05-14T06:47:55.707Z,51.57
2023-05-14T06:50:22.710Z,50.20
2023-05-14T06:52:49.645Z,51.87
2023-05-14T06:55:16.543Z,49.27
2023-05-14T06:57:44.046Z,51.97
2023-05-14T07:00:11.270Z,50.67
2023-05-14T07:02:38.060Z,48.53
2023-05-14T07:05:05.069Z,50.47
2023-05-14T07:07:31.831Z,44.80
2023-05-14T07:09:58.659Z,43.17
2023-05-14T07:12:25.820Z,42.90
2023-05-14T07:14:52.665Z,44.03
2023-05-14T07:17:19.493Z,45.37
2023-05-14T07:19:47.334Z,44.90
2023-05-14T07:22:14.171Z,42.70
2023-05-14T07:24:41.000Z,40.63
2023-05-14T07:27:08.627Z,40.97
2023-05-14T07:29:35.498Z,41.97
2023-05-14T07:32:02.345Z,43.30
2023-05-14T07:34:29.118Z,40.87
2023-05-14T07:36:56.215Z,38.57
2023-05-14T07:39:22.986Z,38.13
2023-05-14T07:41:50.172Z,37.10
2023-05-14T07:44:17.108Z,39.97
2023-05-14T07:46:43.926Z,37.90
2023-05-14T07:49:10.817Z,37.33
2023-05-14T07:51:37.833Z,36.77
2023-05-14T07:54:05.096Z,37.40
2023-05-14T07:56:32.161Z,40.40
2023-05-14T07:58:59.237Z,42.77
2023-05-14T08:01:26.363Z,40.30
2023-05-14T08:03:53.219Z,39.40
2023-05-14T08:06:21.801Z,41.17
2023-05-14T08:08:48.851Z,42.17
2023-05-14T08:11:15.807Z,41.00
2023-05-14T08:13:42.687Z,41.63
2023-05-14T08:16:09.752Z,42.20
2023-05-14T08:18:36.644Z,41.63
2023-05-14T08:21:03.801Z,39.70
2023-05-14T08:23:30.816Z,40.30
2023-05-14T08:25:57.710Z,41.37
2023-05-14T08:28:24.526Z,37.97
2023-05-14T08:30:51.566Z,38.07
2023-05-14T08:33:18.590Z,39.23
2023-05-14T08:35:45.452Z,41.00
2023-05-14T08:38:12.354Z,41.57
2023-05-14T08:40:39.347Z,40.83
2023-05-14T08:43:07.572Z,40.40
2023-05-14T08:45:35.410Z,38.20
2023-05-14T08:48:06.737Z,38.47
2023-05-14T08:50:33.876Z,37.97
2023-05-14T08:53:00.672Z,39.53
2023-05-14T08:55:28.448Z,37.77
2023-05-14T08:57:56.154Z,37.93
2023-05-14T09:00:23.495Z,37.93
2023-05-14T09:02:51.519Z,35.40
2023-05-14T09:05:19.462Z,34.77
2023-05-14T09:07:46.718Z,34.70
2023-05-14T09:10:15.447Z,35.30
2023-05-14T09:12:42.373Z,34.50
2023-05-14T09:15:09.625Z,34.50
2023-05-14T09:17:36.594Z,34.40
2023-05-14T09:20:04.563Z,34.47
2023-05-14T09:22:32.335Z,33.00
2023-05-14T09:25:07.462Z,36.47
2023-05-14T09:27:34.717Z,34.53
2023-05-14T09:30:06.375Z,36.03
2023-05-14T09:32:38.044Z,37.30
2023-05-14T09:35:18.904Z,34.47
2023-05-14T09:37:51.184Z,33.50
2023-05-14T09:40:19.624Z,34.70
2023-05-14T09:42:48.202Z,34.83
2023-05-14T09:45:15.619Z,33.93
2023-05-14T09:47:42.536Z,32.43
2023-05-14T09:50:09.713Z,35.97
2023-05-14T09:52:37.300Z,35.23
2023-05-14T09:55:04.481Z,35.10
2023-05-14T09:57:31.396Z,33.53
2023-05-14T09:59:58.229Z,34.40
2023-05-14T10:02:30.184Z,34.77
2023-05-14T10:05:02.470Z,31.77
2023-05-14T10:07:47.632Z,32.13
2023-05-14T10:10:18.603Z,34.37
2023-05-14T10:12:56.183Z,34.00
2023-05-14T10:15:50.051Z,30.73
2023-05-14T10:18:19.700Z,29.03
2023-05-14T10:20:52.957Z,29.50
2023-05-14T10:23:20.086Z,30.40
2023-05-14T10:25:46.958Z,30.80
2023-05-14T10:28:13.898Z,31.23
2023-05-14T10:30:46.926Z,29.67
2023-05-14T10:33:16.536Z,29.77
2023-05-14T10:36:03.910Z,30.20
2023-05-14T10:38:36.534Z,30.63
2023-05-14T10:41:11.666Z,29.30
2023-05-14T10:43:42.318Z,29.80
2023-05-14T10:46:11.292Z,30.20
2023-05-14T10:48:41.562Z,30.93
2023-05-14T10:51:10.208Z,28.80
2023-05-14T10:53:39.510Z,29.47
2023-05-14T10:56:14.218Z,28.97
2023-05-14T10:58:43.792Z,28.43
2023-05-14T11:01:13.192Z,28.23
2023-05-14T11:03:45.276Z,27.83
2023-05-14T11:06:14.916Z,27.20
2023-05-14T11:08:42.610Z,27.77
2023-05-14T11:11:10.747Z,27.80
2023-05-14T11:13:38.008Z,27.40
2023-05-14T11:16:18.954Z,27.77
2023-05-14T11:19:00.802Z,27.00
2023-05-14T11:21:27.908Z,26.50
2023-05-14T11:23:55.660Z,26.93
2023-05-14T11:26:23.954Z,25.60
2023-05-14T11:28:50.947Z,25.77
2023-05-14T11:31:18.087Z,26.40
2023-05-14T11:33:44.905Z,25.10
2023-05-14T11:36:12.497Z,25.90
2023-05-14T11:38:49.439Z,26.20
2023-05-14T11:41:16.212Z,25.97
2023-05-14T11:43:43.199Z,26.03
2023-05-14T11:46:18.059Z,25.37
2023-05-14T11:48:45.581Z,25.20
2023-05-14T11:51:12.684Z,25.83
2023-05-14T11:53:39.639Z,25.70
2023-05-14T11:56:08.269Z,27.13
2023-05-14T11:58:36.605Z,26.33
2023-05-14T12:01:03.473Z,25.37
2023-05-14T12:03:30.978Z,26.97
2023-05-14T12:05:59.819Z,26.50
2023-05-14T12:08:29.106Z,25.50
2023-05-14T12:10:57.767Z,26.07
2023-05-14T12:13:31.846Z,26.77
2023-05-14T12:16:01.974Z,27.40
2023-05-14T12:18:33.553Z,26.40
2023-05-14T12:21:05.098Z,27.20
2023-05-14T12:23:32.875Z,25.40
2023-05-14T12:26:07.528Z,26.43
2023-05-14T12:28:38.007Z,25.93
2023-05-14T12:31:04.978Z,27.30
2023-05-14T12:33:31.770Z,25.20
2023-05-14T12:36:07.405Z,25.27
2023-05-14T12:38:41.585Z,25.60
2023-05-14T12:41:08.344Z,26.40
2023-05-14T12:43:35.090Z,27.30
2023-05-14T12:46:01.904Z,24.77
2023-05-14T12:48:28.708Z,25.07
2023-05-14T12:50:55.566Z,25.23
2023-05-14T12:53:22.430Z,26.07
2023-05-14T12:55:49.689Z,24.60
2023-05-14T12:58:16.488Z,24.93
2023-05-14T13:00:43.336Z,24.90
2023-05-14T13:03:10.272Z,24.73
2023-05-14T13:05:37.658Z,24.60
2023-05-14T13:08:04.468Z,24.63
2023-05-14T13:10:31.304Z,24.63
2023-05-14T13:12:58.224Z,25.13
2023-05-14T13:15:25.390Z,26.53
2023-05-14T13:17:52.751Z,25.97
2023-05-14T13:20:19.877Z,26.10
2023-05-14T13:22:46.652Z,25.83
2023-05-14T13:25:13.472Z,26.63
2023-05-14T13:27:40.254Z,26.90
2023-05-14T13:30:07.659Z,26.73
2023-05-14T13:32:34.620Z,26.20
2023-05-14T13:35:01.470Z,25.93
2023-05-14T13:37:28.572Z,26.53
2023-05-14T13:39:55.710Z,26.13
2023-05-14T13:42:23.580Z,26.00
2023-05-14T13:44:50.744Z,26.00
2023-05-14T13:47:17.885Z,26.10
2023-05-14T13:49:44.896Z,27.20
2023-05-14T13:52:11.658Z,27.90
2023-05-14T13:54:38.540Z,26.83
2023-05-14T13:57:05.613Z,26.80
2023-05-14T13:59:32.401Z,26.77
2023-05-14T14:01:59.261Z,26.00
2023-05-14T14:04:28.977Z,27.10
2023-05-14T14:06:56.606Z,25.70
2023-05-14T14:09:23.925Z,26.53
2023-05-14T14:11:50.953Z,28.03
2023-05-14T14:14:18.340Z,26.93
2023-05-14T14:16:45.242Z,27.00
2023-05-14T14:19:12.390Z,27.57
2023-05-14T14:21:42.648Z,27.63
2023-05-14T14:24:09.530Z,27.20
2023-05-14T14:26:36.518Z,27.70
2023-05-14T14:29:03.371Z,28.13
2023-05-14T14:31:30.290Z,28.93
2023-05-14T14:33:57.173Z,28.23
2023-05-14T14:36:23.962Z,27.40
2023-05-14T14:38:51.179Z,27.97
2023-05-14T14:41:18.141Z,27.27
2023-05-14T14:43:44.939Z,27.53
2023-05-14T14:46:11.776Z,30.10
2023-05-14T14:48:38.650Z,27.13
2023-05-14T14:51:07.576Z,27.50
2023-05-14T14:53:36.216Z,28.10
2023-05-14T14:56:04.443Z,28.87
2023-05-14T14:58:31.430Z,28.00
2023-05-14T15:00:58.928Z,27.77
2023-05-14T15:03:26.701Z,27.97
2023-05-14T15:05:53.990Z,28.20
2023-05-14T15:08:30.110Z,28.43
2023-05-14T15:10:57.017Z,28.60
2023-05-14T15:13:24.730Z,28.93
2023-05-14T15:15:52.512Z,27.83
2023-05-14T15:18:19.496Z,28.50
2023-05-14T15:20:46.413Z,29.23
2023-05-14T15:23:13.250Z,29.80
2023-05-14T15:25:40.131Z,29.03
2023-05-14T15:28:07.661Z,28.90
2023-05-14T15:30:34.715Z,30.43
2023-05-14T15:33:01.851Z,29.10
2023-05-14T15:35:28.762Z,30.27
2023-05-14T15:37:57.284Z,31.30
2023-05-14T15:40:24.282Z,28.43
2023-05-14T15:42:51.287Z,28.93
2023-05-14T15:45:18.100Z,29.73
2023-05-14T15:47:48.098Z,28.23
2023-05-14T15:50:14.912Z,28.93
2023-05-14T15:52:41.851Z,29.13
2023-05-14T15:55:09.527Z,28.27
2023-05-14T15:57:36.375Z,28.77
2023-05-14T16:00:10.439Z,29.47
2023-05-14T16:02:39.215Z,29.10
2023-05-14T16:05:07.686Z,30.10
2023-05-14T16:07:34.570Z,29.47
2023-05-14T16:10:01.372Z,28.63
2023-05-14T16:12:28.349Z,30.57
2023-05-14T16:14:56.963Z,29.73
2023-05-14T16:17:24.023Z,30.03
2023-05-14T16:19:51.159Z,31.23
2023-05-14T16:22:19.033Z,30.17
2023-05-14T16:24:45.985Z,30.27
2023-05-14T16:27:12.871Z,30.43
2023-05-14T16:29:39.733Z,29.43
2023-05-14T16:32:06.839Z,29.17
2023-05-14T16:34:33.734Z,30.10
2023-05-14T16:37:00.853Z,29.50
2023-05-14T16:39:27.822Z,30.33
2023-05-14T16:41:54.585Z,31.23
2023-05-14T16:44:21.447Z,31.07
2023-05-14T16:46:48.613Z,30.43
2023-05-14T16:49:15.536Z,31.47
2023-05-14T16:51:43.892Z,30.20
2023-05-14T16:54:10.993Z,30.03
2023-05-14T16:56:37.907Z,30.80
2023-05-14T16:59:04.750Z,30.53
2023-05-14T17:01:32.218Z,29.00
2023-05-14T17:03:59.222Z,29.03
2023-05-14T17:06:26.152Z,29.27
2023-05-14T17:08:52.914Z,29.53
2023-05-14T17:11:21.039Z,29.87
2023-05-14T17:13:47.815Z,31.97
2023-05-14T17:16:14.749Z,34.30
2023-05-14T17:18:41.711Z,33.50
2023-05-14T17:21:08.801Z,31.73
2023-05-14T17:23:35.565Z,33.07
2023-05-14T17:26:02.529Z,33.50
2023-05-14T17:28:30.036Z,34.80
2023-05-14T17:30:57.170Z,35.60
2023-05-14T17:33:24.276Z,37.07
2023-05-14T17:35:51.944Z,37.37
2023-05-14T17:38:18.770Z,38.67
2023-05-14T17:40:45.605Z,37.27
2023-05-14T17:43:12.568Z,37.83
2023-05-14T17:45:52.552Z,37.80
2023-05-14T17:48:21.183Z,36.80
2023-05-14T17:50:48.275Z,36.53
2023-05-14T17:53:15.092Z,37.97
2023-05-14T17:55:43.683Z,38.13
2023-05-14T17:58:15.485Z,37.80
2023-05-14T18:00:43.469Z,36.77
2023-05-14T18:03:11.323Z,38.27
2023-05-14T18:05:38.435Z,38.70
2023-05-14T18:08:05.508Z,38.87
2023-05-14T18:10:32.367Z,40.80
2023-05-14T18:12:59.259Z,38.13
2023-05-14T18:15:27.344Z,39.93
2023-05-14T18:17:54.468Z,40.03
2023-05-14T18:20:21.497Z,41.60
2023-05-14T18:22:49.307Z,42.90
2023-05-14T18:25:16.516Z,42.03
2023-05-14T18:27:45.008Z,43.57
2023-05-14T18:30:14.520Z,43.73
2023-05-14T18:32:43.638Z,43.70
2023-05-14T18:35:11.515Z,42.33
2023-05-14T18:37:38.625Z,44.00
2023-05-14T18:40:06.980Z,43.10
2023-05-14T18:42:35.066Z,42.50
2023-05-14T18:45:02.279Z,40.90
2023-05-14T18:47:29.273Z,41.93
2023-05-14T18:49:58.938Z,40.53
2023-05-14T18:52:26.438Z,40.43
2023-05-14T18:54:54.666Z,39.80
2023-05-14T18:57:21.887Z,40.07
2023-05-14T18:59:48.860Z,39.97
2023-05-14T19:02:16.238Z,39.30
2023-05-14T19:04:51.650Z,39.90
2023-05-14T19:07:20.115Z,40.87
2023-05-14T19:09:46.936Z,41.97
2023-05-14T19:12:14.240Z,43.27
2023-05-14T19:14:41.249Z,44.30
2023-05-14T19:17:08.128Z,41.57
2023-05-14T19:19:35.177Z,44.43
2023-05-14T19:22:02.027Z,43.53
2023-05-14T19:24:28.911Z,43.17
2023-05-14T19:26:55.928Z,43.73
2023-05-14T19:29:22.765Z,45.03
2023-05-14T19:31:50.026Z,46.33
2023-05-14T19:34:16.991Z,44.17
2023-05-14T19:36:43.756Z,45.87
2023-05-14T19:39:10.937Z,44.53
2023-05-14T19:41:37.933Z,43.93
2023-05-14T19:44:04.790Z,43.87
2023-05-14T19:46:31.724Z,44.67
2023-05-14T19:48:58.616Z,44.23
2023-05-14T19:51:25.615Z,45.40
2023-05-14T19:53:52.431Z,45.17
2023-05-14T19:56:19.319Z,45.17
2023-05-14T19:58:46.078Z,44.90
2023-05-14T20:01:13.076Z,45.30
2023-05-14T20:03:40.091Z,46.17
2023-05-14T20:06:07.846Z,45.83
2023-05-14T20:08:34.730Z,44.97
2023-05-14T20:11:01.852Z,44.20
2023-05-14T20:13:31.766Z,47.85
2023-05-14T20:15:58.956Z,41.77
2023-05-14T20:18:25.954Z,41.00
2023-05-14T20:20:52.746Z,41.70
2023-05-14T20:23:20.552Z,40.77
2023-05-14T20:25:47.844Z,40.30
2023-05-14T20:28:14.822Z,43.23
2023-05-14T20:30:41.723Z,46.00
2023-05-14T20:33:08.651Z,44.47
2023-05-14T20:35:36.020Z,45.83
2023-05-14T20:38:03.742Z,46.27
2023-05-14T20:40:32.646Z,45.50
2023-05-14T20:42:59.638Z,46.37
2023-05-14T20:45:26.712Z,47.73
2023-05-14T20:47:53.916Z,44.90
2023-05-14T20:50:22.503Z,43.70
2023-05-14T20:52:49.257Z,46.53
2023-05-14T20:55:16.154Z,44.50
2023-05-14T20:57:43.559Z,45.17
2023-05-14T21:00:11.368Z,47.40
2023-05-14T21:02:38.434Z,45.57
2023-05-14T21:05:05.816Z,47.07
2023-05-14T21:07:32.855Z,44.00
2023-05-14T21:09:59.711Z,45.23
2023-05-14T21:12:26.482Z,44.77
2023-05-14T21:14:53.289Z,43.53
2023-05-14T21:17:20.089Z,45.47
2023-05-14T21:19:46.925Z,45.37
2023-05-14T21:22:13.991Z,46.17
2023-05-14T21:24:40.875Z,46.07
2023-05-14T21:27:07.765Z,46.87
2023-05-14T21:29:34.643Z,44.50
2023-05-14T21:32:01.657Z,46.17
2023-05-14T21:34:31.122Z,46.93
2023-05-14T21:36:58.954Z,45.97
2023-05-14T21:39:25.900Z,44.93
2023-05-14T21:41:52.716Z,45.10
2023-05-14T21:44:19.476Z,45.10
2023-05-14T21:46:47.269Z,47.40
2023-05-14T21:49:14.092Z,44.87
2023-05-14T21:51:40.882Z,44.33
2023-05-14T21:54:07.820Z,46.30
2023-05-14T21:56:35.921Z,44.50
2023-05-14T21:59:02.845Z,44.30
2023-05-14T22:01:29.639Z,45.30
2023-05-14T22:03:57.934Z,73.57
2023-05-14T22:06:25.209Z,50.05
2023-05-14T22:08:52.005Z,49.90
2023-05-14T22:11:18.926Z,46.60
2023-05-14T22:13:45.770Z,47.73
2023-05-14T22:16:14.039Z,48.27
2023-05-14T22:18:41.510Z,47.50
2023-05-14T22:21:08.496Z,47.50
2023-05-14T22:23:35.289Z,49.10
2023-05-14T22:26:02.053Z,47.60
2023-05-14T22:28:29.006Z,49.23
2023-05-14T22:30:56.602Z,52.03
2023-05-14T22:33:23.476Z,49.73
2023-05-14T22:35:50.604Z,48.13
2023-05-14T22:38:17.426Z,52.17
2023-05-14T22:40:44.256Z,47.43
2023-05-14T22:43:11.162Z,46.83
2023-05-14T22:45:37.973Z,46.73
2023-05-14T22:48:04.952Z,51.30
2023-05-14T22:50:31.948Z,50.73
2023-05-14T22:52:58.672Z,52.70
2023-05-14T22:55:25.617Z,51.27
2023-05-14T22:57:52.578Z,53.10
2023-05-14T23:00:19.636Z,51.47
2023-05-14T23:02:46.408Z,48.23
2023-05-14T23:05:13.414Z,49.00
2023-05-14T23:07:40.508Z,54.13
2023-05-14T23:10:07.737Z,51.87
2023-05-14T23:12:34.560Z,49.80
2023-05-14T23:15:01.495Z,49.70
2023-05-14T23:17:28.573Z,48.90
2023-05-14T23:19:55.730Z,49.23
2023-05-14T23:22:22.550Z,51.50
2023-05-14T23:24:49.375Z,51.60
2023-05-14T23:27:16.467Z,53.17
2023-05-14T23:29:43.222Z,52.30
2023-05-14T23:32:10.141Z,54.10
2023-05-14T23:34:36.973Z,50.83
2023-05-14T23:37:03.772Z,51.13
2023-05-14T23:39:30.612Z,50.10
2023-05-14T23:41:57.333Z,52.37
2023-05-14T23:44:24.107Z,52.33
2023-05-14T23:46:51.005Z,51.77
2023-05-14T23:49:17.879Z,52.63
2023-05-14T23:51:44.748Z,51.67
2023-05-14T23:54:11.750Z,50.10
2023-05-14T23:56:38.698Z,50.07
2023-05-14T23:59:05.630Z,48.53
